Time;durP1;ratioP1;P1;durP2;ratioP2;P2;SDS_P1;SDS_P2;PMS_P1;PMS_P2;Temp;Humidity;BMP_temperature;BMP_pressure;BME280_temperature;BME280_humidity;BME280_pressure;Samples;Min_cycle;Max_cycle;Signal;HPM_P1;HPM_P2
2021/11/01 00:01:07;;;;;;;0.30;0.20;;;;;;;15.28;100.00;98784.38;5040586;28;20456;-52
2021/11/01 00:03:34;;;;;;;0.30;0.20;;;;;;;15.25;100.00;98794.47;5037791;28;20452;-51
2021/11/01 00:06:00;;;;;;;0.30;0.20;;;;;;;15.17;100.00;98799.50;5030716;28;20456;-51
2021/11/01 00:08:27;;;;;;;0.30;0.20;;;;;;;15.09;100.00;98803.59;5035912;28;20537;-49
2021/11/01 00:10:54;;;;;;;0.30;0.20;;;;;;;15.09;100.00;98816.97;5033747;28;20435;-50
2021/11/01 00:13:20;;;;;;;0.30;0.20;;;;;;;15.05;100.00;98819.97;5033592;28;20452;-50
2021/11/01 00:15:47;;;;;;;0.30;0.20;;;;;;;14.93;100.00;98828.84;5043509;28;20513;-50
2021/11/01 00:18:15;;;;;;;0.30;0.20;;;;;;;14.96;100.00;98823.31;5034407;28;20444;-50
2021/11/01 00:20:41;;;;;;;0.30;0.20;;;;;;;15.00;100.00;98832.81;5030652;28;20465;-49
2021/11/01 00:23:08;;;;;;;0.30;0.20;;;;;;;14.78;100.00;98842.31;5037604;28;20503;-52
2021/11/01 00:25:35;;;;;;;0.30;0.20;;;;;;;14.76;100.00;98848.75;5040331;28;20485;-50
2021/11/01 00:28:03;;;;;;;0.30;0.20;;;;;;;14.75;100.00;98855.06;5025943;28;20451;-50
2021/11/01 00:30:29;;;;;;;0.30;0.20;;;;;;;14.76;100.00;98846.06;5036683;28;20475;-50
2021/11/01 00:32:56;;;;;;;0.30;0.20;;;;;;;14.63;100.00;98856.75;5026751;28;20487;-51
2021/11/01 00:35:23;;;;;;;0.30;0.20;;;;;;;14.67;100.00;98857.44;5033446;28;20998;-50
2021/11/01 00:37:49;;;;;;;0.30;0.20;;;;;;;14.65;100.00;98868.19;5033750;28;20471;-52
2021/11/01 00:40:16;;;;;;;0.30;0.20;;;;;;;14.62;100.00;98875.59;5037027;28;20537;-50
2021/11/01 00:42:42;;;;;;;0.30;0.20;;;;;;;14.60;100.00;98869.50;5034070;28;20841;-51
2021/11/01 00:45:10;;;;;;;0.30;0.20;;;;;;;14.60;99.45;98869.50;5036476;28;20460;-50
2021/11/01 00:47:36;;;;;;;0.30;0.20;;;;;;;14.49;96.04;98856.84;5039161;28;20468;-49
2021/11/01 00:50:04;;;;;;;0.30;0.20;;;;;;;14.46;97.98;98849.03;5037518;28;20885;-50
2021/11/01 00:52:31;;;;;;;0.30;0.20;;;;;;;14.39;95.25;98848.56;5032017;28;20932;-49
2021/11/01 00:55:04;;;;;;;0.30;0.20;;;;;;;14.38;95.96;98846.81;5039287;28;21003;-50
2021/11/01 00:57:31;;;;;;;0.30;0.20;;;;;;;14.30;95.03;98849.19;5034331;28;20472;-48
2021/11/01 00:59:59;;;;;;;0.30;0.20;;;;;;;14.33;95.54;98845.44;5043335;28;21026;-51
2021/11/01 01:02:29;;;;;;;0.30;0.20;;;;;;;14.30;93.70;98846.50;5028679;28;20463;-50
2021/11/01 01:04:56;;;;;;;0.30;0.20;;;;;;;14.38;95.42;98860.19;5029657;28;20431;-49
2021/11/01 01:07:27;;;;;;;0.30;0.20;;;;;;;14.41;96.59;98853.81;5034691;28;20504;-50
2021/11/01 01:09:54;;;;;;;0.30;0.20;;;;;;;14.27;96.50;98857.41;5041589;28;20952;-50
2021/11/01 01:12:21;;;;;;;0.30;0.20;;;;;;;14.26;95.57;98852.16;5018361;28;20458;-50
2021/11/01 01:14:56;;;;;;;0.30;0.20;;;;;;;14.28;96.87;98859.13;5041033;28;20868;-50
2021/11/01 01:17:24;;;;;;;0.30;0.20;;;;;;;14.13;97.71;98847.63;5026420;28;20512;-50
2021/11/01 01:19:56;;;;;;;0.30;0.20;;;;;;;14.19;98.50;98830.31;5028172;28;20493;-49
2021/11/01 01:22:31;;;;;;;0.30;0.20;;;;;;;14.22;100.00;98843.47;5036689;28;20496;-49
2021/11/01 01:25:13;;;;;;;0.30;0.20;;;;;;;14.07;100.00;98856.03;5047125;28;20421;-50
2021/11/01 01:27:40;;;;;;;0.30;0.20;;;;;;;13.95;100.00;98862.19;5036138;28;20454;-50
2021/11/01 01:30:08;;;;;;;0.30;0.20;;;;;;;13.86;100.00;98861.00;5032013;28;20510;-50
2021/11/01 01:32:35;;;;;;;0.30;0.20;;;;;;;13.84;100.00;98857.56;5036138;28;20484;-50
2021/11/01 01:35:02;;;;;;;0.40;0.20;;;;;;;13.72;100.00;98860.16;5030821;28;20515;-49
2021/11/01 01:37:29;;;;;;;0.30;0.20;;;;;;;13.75;100.00;98860.81;5030803;28;20471;-49
2021/11/01 01:39:55;;;;;;;0.30;0.20;;;;;;;13.60;100.00;98864.47;5038623;28;20483;-50
2021/11/01 01:42:22;;;;;;;0.30;0.20;;;;;;;13.59;100.00;98855.63;5028483;28;20513;-49
2021/11/01 01:44:49;;;;;;;0.30;0.20;;;;;;;13.60;100.00;98843.13;5028931;28;20801;-49
2021/11/01 01:47:17;;;;;;;0.30;0.20;;;;;;;13.59;100.00;98830.72;5039785;28;20474;-50
2021/11/01 01:49:44;;;;;;;0.30;0.20;;;;;;;13.48;100.00;98830.56;5033405;28;20477;-49
2021/11/01 01:52:11;;;;;;;0.30;0.20;;;;;;;13.26;100.00;98833.72;5042626;28;20528;-50
2021/11/01 01:54:37;;;;;;;0.30;0.20;;;;;;;13.18;100.00;98844.88;5028553;28;20912;-50
2021/11/01 01:57:04;;;;;;;0.30;0.20;;;;;;;13.22;100.00;98848.22;5038233;28;20500;-49
2021/11/01 01:59:31;;;;;;;0.30;0.20;;;;;;;13.09;100.00;98853.41;5027912;28;20457;-50
2021/11/01 02:01:58;;;;;;;0.30;0.20;;;;;;;13.03;100.00;98856.47;5036572;28;20464;-49
2021/11/01 02:04:27;;;;;;;0.30;0.20;;;;;;;12.97;100.00;98851.50;5034002;28;20470;-51
2021/11/01 02:07:18;;;;;;;0.30;0.20;;;;;;;12.91;100.00;98835.88;5029915;28;20494;-50
2021/11/01 02:09:51;;;;;;;0.30;0.20;;;;;;;12.84;100.00;98838.06;5040921;28;20447;-49
2021/11/01 02:12:25;;;;;;;0.30;0.20;;;;;;;12.86;100.00;98848.63;5028792;28;20490;-50
2021/11/01 02:14:58;;;;;;;0.30;0.20;;;;;;;12.72;100.00;98853.00;5037934;28;20465;-49
2021/11/01 02:17:28;;;;;;;0.30;0.20;;;;;;;12.82;100.00;98847.97;5031355;28;20472;-49
2021/11/01 02:20:02;;;;;;;0.30;0.20;;;;;;;12.46;100.00;98838.56;5029364;28;20457;-50
2021/11/01 02:22:31;;;;;;;0.30;0.20;;;;;;;12.03;100.00;98826.06;5028892;28;20472;-49
2021/11/01 02:25:02;;;;;;;0.30;0.20;;;;;;;12.38;100.00;98819.53;5036483;28;20529;-49
2021/11/01 02:27:32;;;;;;;0.30;0.20;;;;;;;12.20;100.00;98804.63;5034762;28;20454;-49
2021/11/01 02:30:00;;;;;;;0.30;0.20;;;;;;;12.06;100.00;98784.13;5037125;28;20455;-49
2021/11/01 02:32:27;;;;;;;0.30;0.20;;;;;;;12.30;100.00;98778.28;5031305;28;20483;-48
2021/11/01 02:34:54;;;;;;;0.30;0.20;;;;;;;12.27;100.00;98773.16;5025493;28;20491;-50
2021/11/01 02:37:22;;;;;;;0.30;0.20;;;;;;;12.67;100.00;98807.09;5037194;28;20539;-48
2021/11/01 02:39:54;;;;;;;0.30;0.20;;;;;;;12.58;100.00;98844.97;5034359;28;20510;-50
2021/11/01 02:42:24;;;;;;;0.30;0.20;;;;;;;12.57;100.00;98835.25;5038208;28;20484;-50
2021/11/01 02:44:50;;;;;;;0.30;0.20;;;;;;;12.63;100.00;98812.72;5037061;28;20451;-50
2021/11/01 02:47:17;;;;;;;0.30;0.20;;;;;;;12.66;100.00;98841.84;5022428;28;20485;-50
2021/11/01 02:49:44;;;;;;;0.30;0.20;;;;;;;12.80;100.00;98803.69;5031720;28;20458;-49
2021/11/01 02:52:10;;;;;;;0.30;0.20;;;;;;;12.89;100.00;98803.13;5038546;28;20807;-49
2021/11/01 02:54:37;;;;;;;0.30;0.20;;;;;;;12.86;100.00;98805.97;5034863;28;20541;-48
2021/11/01 02:57:04;;;;;;;0.30;0.20;;;;;;;12.98;100.00;98832.72;5026618;28;20500;-48
2021/11/01 02:59:31;;;;;;;0.30;0.20;;;;;;;12.97;100.00;98830.16;5037567;28;20462;-50
2021/11/01 03:01:59;;;;;;;0.30;0.20;;;;;;;12.74;100.00;98829.75;5036843;28;20919;-50
2021/11/01 03:04:26;;;;;;;0.30;0.20;;;;;;;12.99;100.00;98838.91;5020332;28;20416;-48
2021/11/01 03:06:53;;;;;;;0.30;0.20;;;;;;;13.03;100.00;98846.66;5039143;28;20997;-50
2021/11/01 03:09:21;;;;;;;0.30;0.20;;;;;;;12.91;100.00;98852.75;5032447;28;20468;-49
2021/11/01 03:11:48;;;;;;;0.30;0.20;;;;;;;12.95;100.00;98861.41;5037358;28;20475;-50
2021/11/01 03:14:19;;;;;;;0.30;0.30;;;;;;;12.91;100.00;98874.09;5022971;28;20480;-49
2021/11/01 03:16:47;;;;;;;0.30;0.20;;;;;;;12.86;100.00;98868.16;5040256;28;20454;-49
2021/11/01 03:19:19;;;;;;;0.47;0.47;;;;;;;12.85;100.00;98866.44;5032916;28;20430;-51
2021/11/01 03:21:47;;;;;;;0.30;0.20;;;;;;;12.79;100.00;98861.50;5002482;28;20804;-50
2021/11/01 03:24:15;;;;;;;0.30;0.20;;;;;;;12.82;100.00;98863.09;5033402;28;20510;-50
2021/11/01 03:26:44;;;;;;;0.30;0.20;;;;;;;12.90;100.00;98874.19;5040361;28;20455;-51
2021/11/01 03:29:12;;;;;;;0.30;0.20;;;;;;;12.93;100.00;98868.66;5026079;28;20427;-50
2021/11/01 03:31:41;;;;;;;0.30;0.20;;;;;;;12.89;100.00;98888.47;5034572;28;20453;-51
2021/11/01 03:34:09;;;;;;;0.30;0.20;;;;;;;13.02;100.00;98884.97;5030419;28;20460;-51
2021/11/01 03:36:38;;;;;;;0.30;0.20;;;;;;;12.88;100.00;98876.06;5027956;28;20426;-51
2021/11/01 03:39:08;;;;;;;0.30;0.20;;;;;;;12.81;100.00;98880.91;5033247;28;20949;-51
2021/11/01 03:41:35;;;;;;;0.30;0.20;;;;;;;12.82;100.00;98885.28;5036798;28;20435;-52
2021/11/01 03:44:06;;;;;;;0.30;0.20;;;;;;;12.67;100.00;98884.41;5026653;28;20450;-51
2021/11/01 03:47:00;;;;;;;0.30;0.20;;;;;;;12.78;100.00;98866.91;5038948;28;20483;-51
2021/11/01 03:49:29;;;;;;;0.30;0.20;;;;;;;12.77;100.00;98867.88;5034741;28;20426;-51
2021/11/01 03:54:28;;;;;;;0.30;0.20;;;;;;;12.73;100.00;98828.03;5036579;28;20521;-51
2021/11/01 03:56:57;;;;;;;0.30;0.20;;;;;;;12.74;100.00;98810.22;5031213;28;21055;-51
2021/11/01 03:59:26;;;;;;;0.30;0.20;;;;;;;12.65;100.00;98825.00;5009288;28;21017;-51
2021/11/01 04:01:53;;;;;;;0.30;0.20;;;;;;;12.59;100.00;98813.84;5039793;28;20882;-52
2021/11/01 04:04:20;;;;;;;0.30;0.20;;;;;;;12.63;100.00;98850.91;5021582;28;20458;-51
2021/11/01 04:06:47;;;;;;;0.30;0.20;;;;;;;12.71;100.00;98864.59;5039173;28;20446;-51
2021/11/01 04:09:16;;;;;;;0.40;0.40;;;;;;;12.65;100.00;98859.66;5037640;28;20427;-52
2021/11/01 04:11:44;;;;;;;0.30;0.20;;;;;;;12.81;100.00;98858.72;5037121;28;20544;-52
2021/11/01 04:14:21;;;;;;;0.30;0.20;;;;;;;12.81;100.00;98874.72;5039852;28;20434;-51
2021/11/01 04:16:52;;;;;;;0.30;0.20;;;;;;;12.78;100.00;98874.91;5033522;28;20462;-51
2021/11/01 04:21:47;;;;;;;0.30;0.20;;;;;;;12.61;100.00;98876.78;5039971;28;20425;-51
2021/11/01 04:24:16;;;;;;;0.30;0.20;;;;;;;12.73;100.00;98892.03;5039445;28;20441;-51
2021/11/01 04:26:43;;;;;;;0.30;0.20;;;;;;;12.63;100.00;98890.88;5035254;28;20450;-51
2021/11/01 04:29:12;;;;;;;0.30;0.20;;;;;;;12.67;100.00;98888.88;5019809;28;20800;-51
2021/11/01 04:31:42;;;;;;;0.30;0.20;;;;;;;12.71;100.00;98888.59;5028608;28;20465;-51
2021/11/01 04:34:23;;;;;;;0.30;0.20;;;;;;;12.63;100.00;98900.69;5037921;28;20452;-51
2021/11/01 04:36:52;;;;;;;0.30;0.20;;;;;;;12.61;100.00;98906.13;5027481;28;20504;-51
2021/11/01 04:39:45;;;;;;;0.30;0.20;;;;;;;12.60;100.00;98904.38;5043723;28;20487;-52
2021/11/01 04:52:55;;;;;;;0.30;0.20;;;;;;;12.68;100.00;98903.94;5033948;28;20506;-51
2021/11/01 04:53:29;;;;;;;0.30;0.20;;;;;;;12.51;100.00;98886.28;5030061;28;20437;-51
2021/11/01 04:55:56;;;;;;;0.30;0.20;;;;;;;12.55;100.00;98881.63;5041567;28;20986;-51
2021/11/01 04:58:23;;;;;;;0.30;0.20;;;;;;;12.60;100.00;98891.03;5034067;28;20471;-51
2021/11/01 05:00:52;;;;;;;0.40;0.30;;;;;;;12.56;100.00;98889.53;5027439;28;20431;-51
2021/11/01 05:05:49;;;;;;;0.30;0.20;;;;;;;12.43;100.00;98891.19;5038620;28;20429;-50
2021/11/01 05:08:17;;;;;;;0.30;0.20;;;;;;;12.52;100.00;98896.00;5035375;28;20468;-51
2021/11/01 05:10:48;;;;;;;0.30;0.20;;;;;;;12.50;100.00;98886.38;5029795;28;20505;-51
2021/11/01 05:13:22;;;;;;;0.30;0.20;;;;;;;12.53;100.00;98878.19;5034985;28;20428;-51
2021/11/01 05:15:59;;;;;;;0.30;0.20;;;;;;;12.50;100.00;98883.72;5031142;28;20458;-51
2021/11/01 05:18:32;;;;;;;0.30;0.20;;;;;;;12.49;100.00;98890.84;5041348;28;20471;-51
2021/11/01 05:23:52;;;;;;;0.30;0.20;;;;;;;12.49;100.00;98890.84;5033442;28;20901;-51
2021/11/01 05:26:28;;;;;;;0.30;0.30;;;;;;;12.41;100.00;98893.09;5042756;28;20478;-51
2021/11/01 05:28:58;;;;;;;0.30;0.20;;;;;;;12.36;100.00;98888.03;5049016;28;20413;-50
2021/11/01 05:31:27;;;;;;;0.30;0.20;;;;;;;12.39;100.00;98895.00;5036245;28;20780;-51
2021/11/01 05:36:27;;;;;;;0.30;0.20;;;;;;;12.42;100.00;98914.31;5031648;28;20589;-51
2021/11/01 05:38:55;;;;;;;0.30;0.20;;;;;;;12.53;100.00;98916.38;5046714;28;20483;-51
2021/11/01 05:41:22;;;;;;;0.30;0.20;;;;;;;12.41;100.00;98925.94;5040638;28;20870;-51
2021/11/01 05:43:49;;;;;;;0.30;0.20;;;;;;;12.52;100.00;98927.13;5044853;28;20482;-51
2021/11/01 05:46:16;;;;;;;0.30;0.20;;;;;;;12.41;100.00;98927.72;5037962;28;20460;-52
2021/11/01 05:48:51;;;;;;;0.30;0.20;;;;;;;12.42;100.00;98916.13;5046512;28;20562;-51
2021/11/01 05:51:20;;;;;;;0.30;0.20;;;;;;;12.31;100.00;98908.75;5033014;28;20444;-51
2021/11/01 05:53:51;;;;;;;0.30;0.20;;;;;;;12.32;100.00;98914.94;5034774;28;20474;-51
2021/11/01 05:57:01;;;;;;;0.30;0.20;;;;;;;12.30;100.00;98922.16;5025878;28;20521;-51
2021/11/01 06:14:54;;;;;;;0.53;0.50;;;;;;;12.42;100.00;98932.13;5031454;28;20454;-51
2021/11/01 06:17:21;;;;;;;0.30;0.20;;;;;;;12.42;100.00;98943.63;5032690;28;20511;-51
2021/11/01 06:19:48;;;;;;;0.30;0.20;;;;;;;12.48;100.00;98942.44;5034432;28;20489;-51
2021/11/01 06:22:17;;;;;;;0.30;0.20;;;;;;;12.44;100.00;98946.19;5032090;28;20506;-51
2021/11/01 06:24:49;;;;;;;0.30;0.20;;;;;;;12.50;100.00;98939.69;5035006;28;20899;-51
2021/11/01 06:27:17;;;;;;;0.30;0.20;;;;;;;12.24;100.00;98944.69;5032937;28;20454;-51
2021/11/01 07:16:02;;;;;;;0.30;0.20;;;;;;;12.22;100.00;98999.00;5024011;28;20462;-51
2021/11/01 07:18:36;;;;;;;0.30;0.20;;;;;;;12.11;100.00;98996.94;5033824;28;20445;-50
2021/11/01 07:30:00;;;;;;;0.30;0.20;;;;;;;12.32;100.00;99011.72;5039249;28;20434;-51
2021/11/01 08:27:04;;;;;;;0.30;0.20;;;;;;;12.72;100.00;98999.63;5044874;28;20451;-52
2021/11/01 08:30:01;;;;;;;0.30;0.20;;;;;;;12.88;100.00;98988.06;5038512;28;20495;-51
2021/11/01 09:01:50;;;;;;;0.30;0.20;;;;;;;12.92;100.00;98994.97;5040746;28;20441;-51
2021/11/01 09:12:54;;;;;;;0.30;0.20;;;;;;;13.01;100.00;99013.06;5042819;28;20449;-52
2021/11/01 09:25:53;;;;;;;0.30;0.20;;;;;;;13.11;100.00;99006.25;5046936;28;20446;-49
2021/11/01 09:28:36;;;;;;;0.30;0.20;;;;;;;13.15;100.00;99012.25;5028864;28;20474;-50
2021/11/01 09:42:01;;;;;;;0.30;0.20;;;;;;;13.14;100.00;98986.53;5040547;28;20450;-49
2021/11/01 09:44:31;;;;;;;0.30;0.20;;;;;;;13.23;100.00;98994.03;5027408;28;20433;-50
2021/11/01 09:47:00;;;;;;;0.30;0.20;;;;;;;13.34;100.00;99000.44;5039660;28;20438;-50
2021/11/01 09:49:28;;;;;;;0.30;0.20;;;;;;;13.15;100.00;99004.25;5044557;28;20980;-49
2021/11/01 09:51:58;;;;;;;0.30;0.20;;;;;;;13.40;100.00;98996.50;5046682;28;20955;-50
2021/11/01 09:54:27;;;;;;;0.40;0.20;;;;;;;13.34;100.00;98997.75;5041954;28;20915;-49
2021/11/01 09:57:08;;;;;;;0.30;0.20;;;;;;;13.52;100.00;98981.56;5039757;28;20545;-50
2021/11/01 09:59:38;;;;;;;0.30;0.20;;;;;;;13.61;100.00;98979.19;5042196;28;20977;-50
2021/11/01 10:02:08;;;;;;;0.30;0.20;;;;;;;13.48;100.00;98975.56;5046891;28;20426;-50
2021/11/01 10:04:36;;;;;;;0.30;0.20;;;;;;;13.61;100.00;98973.84;5028298;28;20490;-50
2021/11/01 10:07:23;;;;;;;0.30;0.20;;;;;;;13.46;100.00;98977.47;5039249;28;20438;-50
2021/11/01 10:09:53;;;;;;;0.30;0.20;;;;;;;13.58;100.00;98981.19;5040319;28;20558;-50
2021/11/01 10:12:21;;;;;;;0.30;0.20;;;;;;;13.45;100.00;98988.25;5052759;28;20479;-50
2021/11/01 10:17:33;;;;;;;0.30;0.20;;;;;;;13.57;100.00;98982.16;5039321;28;20504;-49
2021/11/01 10:18:09;;;;;;;0.30;0.20;;;;;;;13.39;100.00;98977.94;5035150;28;20499;-49
2021/11/01 10:20:41;;;;;;;0.30;0.20;;;;;;;13.22;100.00;98970.94;5042014;28;20455;-50
2021/11/01 10:23:23;;;;;;;0.30;0.20;;;;;;;13.25;100.00;98962.75;5046009;28;20514;-50
2021/11/01 10:25:51;;;;;;;0.30;0.20;;;;;;;13.34;100.00;98960.41;5040153;28;20478;-50
2021/11/01 10:28:29;;;;;;;0.30;0.20;;;;;;;13.40;100.00;98958.28;5039674;28;20536;-50
2021/11/01 10:31:18;;;;;;;0.30;0.20;;;;;;;13.30;100.00;98958.00;5038892;28;20915;-50
2021/11/01 10:33:47;;;;;;;0.30;0.20;;;;;;;13.34;100.00;98955.06;5040503;28;20426;-49
2021/11/01 10:36:30;;;;;;;0.30;0.20;;;;;;;13.30;100.00;98958.00;5046075;28;20517;-50
2021/11/01 10:39:06;;;;;;;0.30;0.20;;;;;;;13.38;100.00;98954.84;5046994;28;20450;-50
2021/11/01 11:11:42;;;;;;;0.30;0.20;;;;;;;14.08;98.45;98937.06;5037845;28;20460;-50
2021/11/01 11:33:30;;;;;;;0.83;0.83;;;;;;;14.64;97.80;98911.09;5041727;28;20529;-50
2021/11/01 11:39:23;;;;;;;0.40;0.40;;;;;;;14.39;98.08;98899.38;5031003;28;20442;-49
2021/11/01 11:47:58;;;;;;;0.30;0.20;;;;;;;14.56;98.87;98908.09;5039751;28;20473;-49
2021/11/01 11:50:29;;;;;;;0.30;0.20;;;;;;;14.37;99.44;98911.94;5030591;28;20458;-50
2021/11/01 11:53:06;;;;;;;0.30;0.20;;;;;;;14.11;98.88;98912.81;5025263;28;20507;-49
2021/11/01 11:55:32;;;;;;;0.30;0.20;;;;;;;14.23;99.65;98907.50;5033183;28;20455;-49
2021/11/01 11:58:03;;;;;;;0.30;0.20;;;;;;;14.20;99.90;98904.19;5026010;28;20977;-49
2021/11/01 12:00:34;;;;;;;0.30;0.20;;;;;;;14.20;100.00;98913.06;5035408;28;20480;-49
2021/11/01 12:03:13;;;;;;;0.30;0.20;;;;;;;14.12;97.25;98898.50;5033933;28;20455;-50
2021/11/01 12:05:54;;;;;;;0.30;0.20;;;;;;;14.19;96.93;98898.00;5020811;28;20459;-49
2021/11/01 12:08:34;;;;;;;0.30;0.20;;;;;;;14.37;97.62;98903.06;5027422;28;20497;-50
2021/11/01 12:19:10;;;;;;;0.30;0.20;;;;;;;14.73;93.36;98895.28;5047243;28;20454;-50
2021/11/01 12:21:40;;;;;;;0.30;0.20;;;;;;;14.67;92.22;98902.91;5041425;28;20474;-50
2021/11/01 12:24:09;;;;;;;0.30;0.20;;;;;;;14.61;91.46;98900.63;5041252;28;20458;-50
2021/11/01 12:26:38;;;;;;;0.30;0.20;;;;;;;14.73;90.32;98889.94;5047424;28;20534;-50
2021/11/01 12:29:10;;;;;;;0.50;0.50;;;;;;;14.74;91.83;98901.50;5048062;28;20429;-50
2021/11/01 12:31:37;;;;;;;0.50;0.50;;;;;;;14.89;91.90;98888.91;5043801;28;20496;-49
2021/11/01 12:34:18;;;;;;;0.30;0.20;;;;;;;14.93;91.94;98907.28;5043068;28;20878;-49
2021/11/01 12:36:58;;;;;;;0.30;0.20;;;;;;;14.68;88.72;98900.13;5043892;28;20970;-48
2021/11/01 12:39:53;;;;;;;0.30;0.20;;;;;;;14.45;90.34;98909.66;5047962;28;20422;-49
2021/11/01 12:45:58;;;;;;;0.30;0.20;;;;;;;14.13;94.16;98918.94;5046872;28;20467;-48
2021/11/01 12:59:43;;;;;;;0.30;0.20;;;;;;;13.92;94.49;98926.50;5044023;28;20505;-49
2021/11/01 13:02:13;;;;;;;0.30;0.20;;;;;;;13.88;92.67;98928.53;5047763;28;20426;-49
2021/11/01 13:04:41;;;;;;;0.30;0.20;;;;;;;13.55;92.44;98926.16;5047951;28;20474;-48
2021/11/01 13:09:45;;;;;;;0.30;0.20;;;;;;;13.62;93.03;98918.63;5039740;28;20458;-48
2021/11/01 13:20:21;;;;;;;0.30;0.20;;;;;;;13.60;98.22;98928.56;5030942;28;20442;-49
2021/11/01 13:22:52;;;;;;;0.30;0.20;;;;;;;13.77;97.55;98920.34;5040256;28;20455;-48
2021/11/01 13:25:29;;;;;;;0.30;0.20;;;;;;;13.44;100.00;98915.31;5045353;28;20418;-50
2021/11/01 13:36:41;;;;;;;0.30;0.20;;;;;;;12.79;100.00;98905.97;5030848;28;20457;-48
2021/11/01 13:39:10;;;;;;;0.30;0.20;;;;;;;12.57;100.00;98909.03;5040133;28;20482;-48
2021/11/01 13:41:45;;;;;;;0.30;0.20;;;;;;;12.63;100.00;98900.69;5025401;28;20458;-48
2021/11/01 13:44:23;;;;;;;0.40;0.30;;;;;;;12.81;100.00;98904.91;5046704;28;20449;-49
2021/11/01 13:47:03;;;;;;;0.30;0.20;;;;;;;12.76;100.00;98901.69;5029042;28;20522;-49
2021/11/01 13:49:32;;;;;;;0.30;0.30;;;;;;;13.02;100.00;98898.31;5041985;28;20455;-49
2021/11/01 13:52:34;;;;;;;0.30;0.20;;;;;;;13.07;100.00;98895.34;5039646;28;20452;-48
2021/11/01 13:55:21;;;;;;;0.30;0.20;;;;;;;12.88;100.00;98892.06;5050638;28;20479;-48
2021/11/01 13:58:06;;;;;;;0.30;0.20;;;;;;;13.16;100.00;98888.59;5043313;28;21119;-49
2021/11/01 14:01:10;;;;;;;0.30;0.20;;;;;;;13.51;100.00;98883.75;5039600;28;20864;-49
2021/11/01 14:12:13;;;;;;;0.30;0.20;;;;;;;13.69;100.00;98890.56;5052626;28;20446;-49
2021/11/01 14:56:48;;;;;;;0.30;0.20;;;;;;;13.53;100.00;98860.47;5044340;28;20563;-48
2021/11/01 15:07:21;;;;;;;0.30;0.20;;;;;;;13.39;100.00;98861.34;5038642;28;20528;-48
2021/11/01 15:21:21;;;;;;;0.30;0.20;;;;;;;13.04;100.00;98869.72;5042885;28;20470;-48
2021/11/01 15:29:22;;;;;;;0.30;0.20;;;;;;;12.79;100.00;98877.50;5060003;28;20447;-51
2021/11/01 15:34:43;;;;;;;0.30;0.20;;;;;;;12.73;100.00;98880.50;5059017;28;20511;-53
2021/11/01 15:40:06;;;;;;;0.30;0.20;;;;;;;12.59;100.00;98875.16;5047758;28;20438;-52
2021/11/01 16:15:16;;;;;;;0.30;0.20;;;;;;;12.62;100.00;98875.84;5058664;28;20427;-52
2021/11/01 16:18:15;;;;;;;0.30;0.20;;;;;;;11.60;100.00;98889.69;5068623;28;20461;-52
2021/11/01 16:20:43;;;;;;;0.30;0.20;;;;;;;11.54;100.00;98893.56;5066909;28;20421;-53
2021/11/01 16:25:38;;;;;;;0.30;0.20;;;;;;;11.60;100.00;98897.66;5067255;28;20490;-52
2021/11/01 16:28:06;;;;;;;0.30;0.20;;;;;;;11.43;100.00;98898.59;5061343;28;20416;-51
2021/11/01 16:30:33;;;;;;;2.97;2.73;;;;;;;11.56;100.00;98906.78;5062175;28;20879;-51
2021/11/01 16:33:06;;;;;;;0.57;0.57;;;;;;;11.41;100.00;98897.81;5068377;28;20521;-53
2021/11/01 16:35:39;;;;;;;0.30;0.20;;;;;;;11.39;100.00;98894.41;5068396;28;20949;-52
2021/11/01 16:40:33;;;;;;;0.30;0.30;;;;;;;11.21;100.00;98888.25;5061345;28;20421;-52
2021/11/01 16:43:02;;;;;;;0.30;0.20;;;;;;;11.30;100.00;98897.53;5066627;28;20451;-51
2021/11/01 16:45:35;;;;;;;0.30;0.20;;;;;;;11.19;100.00;98897.25;5067903;28;20465;-52
2021/11/01 16:48:02;;;;;;;0.30;0.20;;;;;;;11.18;100.00;98895.53;5064513;28;20442;-52
2021/11/01 16:50:29;;;;;;;0.30;0.20;;;;;;;10.89;100.00;98900.59;5061266;28;20421;-52
2021/11/01 16:52:56;;;;;;;0.30;0.20;;;;;;;10.76;100.00;98899.53;5064214;28;20459;-52
2021/11/01 16:55:35;;;;;;;0.30;0.20;;;;;;;10.55;100.00;98892.63;5067759;28;20619;-51
2021/11/01 16:58:14;;;;;;;0.33;0.20;;;;;;;10.54;100.00;98901.53;5065965;28;20485;-51
2021/11/01 18:51:37;;;;;;;0.30;0.20;;;;;;;8.10;100.00;98932.09;5061507;28;20805;-51
2021/11/01 18:54:23;;;;;;;0.30;0.20;;;;;;;8.06;100.00;98942.84;5070229;28;20812;-51
2021/11/01 18:56:51;;;;;;;0.30;0.20;;;;;;;7.95;100.00;98927.44;5058887;28;20507;-51
2021/11/01 18:59:20;;;;;;;0.30;0.20;;;;;;;7.84;100.00;98922.56;5063573;28;20490;-51
2021/11/01 19:02:11;;;;;;;0.30;0.20;;;;;;;7.65;100.00;98934.75;5065900;28;20450;-51
2021/11/01 19:05:39;;;;;;;0.30;0.20;;;;;;;7.53;100.00;98927.28;5065685;28;20537;-51
2021/11/01 21:24:32;;;;;;;0.30;0.20;;;;;;;6.68;100.00;98924.22;5063812;28;20936;-51
2021/11/01 21:24:50;;;;;;;0.30;0.20;;;;;;;6.43;100.00;98910.16;5061172;28;20446;-51
2021/11/01 21:27:21;;;;;;;0.30;0.20;;;;;;;6.34;100.00;98908.69;5068394;22;20510;-49
2021/11/01 21:29:48;;;;;;;0.30;0.20;;;;;;;6.35;100.00;98909.56;5040536;28;20496;-50
2021/11/01 21:32:15;;;;;;;0.30;0.20;;;;;;;6.47;100.00;98902.09;5040956;28;20530;-50
2021/11/01 21:34:53;;;;;;;0.30;0.20;;;;;;;6.88;100.00;98899.78;5047134;28;20505;-50
2021/11/01 21:37:20;;;;;;;0.30;0.20;;;;;;;6.75;100.00;98907.28;5033603;28;20471;-50
2021/11/01 21:39:47;;;;;;;0.30;0.20;;;;;;;6.58;100.00;98907.00;5033463;28;20519;-50
2021/11/01 21:42:13;;;;;;;0.30;0.20;;;;;;;6.54;100.00;98908.00;5033572;28;20451;-50
2021/11/01 21:44:40;;;;;;;0.30;0.20;;;;;;;6.33;100.00;98904.34;5033462;28;20878;-50
2021/11/01 21:47:07;;;;;;;0.30;0.20;;;;;;;6.57;100.00;98905.25;5033388;28;20980;-50
2021/11/01 21:49:34;;;;;;;0.30;0.20;;;;;;;6.58;100.00;98907.00;5033819;28;20447;-50
2021/11/01 21:52:01;;;;;;;0.30;0.20;;;;;;;6.36;100.00;98909.50;5033225;28;20520;-50
2021/11/01 21:54:30;;;;;;;0.30;0.20;;;;;;;6.52;100.00;98899.28;5031325;28;20452;-50
2021/11/01 21:59:46;;;;;;;0.30;0.20;;;;;;;6.31;100.00;98894.75;5033457;28;20484;-50
2021/11/01 22:18:33;;;;;;;0.30;0.20;;;;;;;5.59;100.00;98878.59;5033711;28;20505;-50
2021/11/01 22:58:44;;;;;;;0.30;0.20;;;;;;;5.55;100.00;98856.75;5032951;28;20483;-51
2021/11/01 23:01:19;;;;;;;0.30;0.20;;;;;;;5.67;100.00;98857.28;5032307;28;20521;-50
2021/11/01 23:32:06;;;;;;;0.30;0.20;;;;;;;5.92;100.00;98848.56;4990762;28;20484;-50
2021/11/01 23:34:33;;;;;;;0.30;0.20;;;;;;;5.79;100.00;98843.69;5015536;28;20483;-50
2021/11/01 23:37:00;;;;;;;1.43;1.43;;;;;;;5.76;100.00;98843.81;5032138;28;20529;-50
2021/11/01 23:39:28;;;;;;;0.30;0.20;;;;;;;5.75;100.00;98839.41;5031966;28;20487;-50
2021/11/01 23:41:54;;;;;;;0.30;0.20;;;;;;;5.75;100.00;98842.03;5032376;28;20867;-50
2021/11/01 23:44:21;;;;;;;0.30;0.20;;;;;;;5.81;100.00;98832.19;5031782;28;20448;-50
2021/11/01 23:46:48;;;;;;;0.40;0.33;;;;;;;5.68;100.00;98835.25;5031821;28;20472;-49
2021/11/01 23:49:15;;;;;;;0.30;0.20;;;;;;;5.74;100.00;98822.72;5032232;28;20944;-49
2021/11/01 23:51:59;;;;;;;0.30;0.20;;;;;;;5.81;100.00;98828.69;5032231;28;20452;-49
2021/11/01 23:54:38;;;;;;;0.30;0.20;;;;;;;5.75;100.00;98824.47;5028937;28;20986;-50
2021/11/01 23:57:05;;;;;;;0.30;0.20;;;;;;;5.85;100.00;98825.03;5031361;28;20904;-50
2021/11/01 23:59:32;;;;;;;0.87;0.87;;;;;;;5.81;100.00;98834.81;5032032;28;20552;-50
